Time;durP1;ratioP1;P1;durP2;ratioP2;P2;SDS_P1;SDS_P2;PMS_P1;PMS_P2;Temp;Humidity;BMP_temperature;BMP_pressure;BME280_temperature;BME280_humidity;BME280_pressure;Samples;Min_cycle;Max_cycle;Signal;HPM_P1;HPM_P2
2023/05/09 00:00:09;;;;;;;3.80;3.60;;;;;;;18.02;45.46;98312.59;8412057;28;20230;-73
2023/05/09 00:04:12;;;;;;;4.93;4.40;;;;;;;17.82;46.02;98314.78;8412124;28;20239;-73
2023/05/09 00:08:15;;;;;;;4.77;4.13;;;;;;;17.85;45.93;98318.97;8412287;28;20254;-73
2023/05/09 00:12:20;;;;;;;4.27;3.93;;;;;;;17.84;46.13;98312.03;8386789;28;20221;-73
2023/05/09 00:16:23;;;;;;;4.73;3.80;;;;;;;17.44;47.24;98312.09;8378696;28;20235;-73
2023/05/09 00:20:27;;;;;;;4.20;3.80;;;;;;;17.32;47.41;98306.75;8379137;28;20235;-73
2023/05/09 00:24:29;;;;;;;4.07;3.77;;;;;;;17.16;47.92;98303.47;8378773;28;20347;-73
2023/05/09 00:28:34;;;;;;;4.87;4.00;;;;;;;17.16;47.60;98303.47;8378653;28;20232;-71
2023/05/09 00:32:36;;;;;;;5.60;4.23;;;;;;;17.32;47.06;98301.50;8378653;28;20424;-73
2023/05/09 00:36:39;;;;;;;4.60;4.20;;;;;;;17.12;47.40;98302.84;8378687;28;20222;-71
2023/05/09 00:40:42;;;;;;;4.70;4.30;;;;;;;17.21;47.49;98296.19;8378325;28;20237;-71
2023/05/09 00:44:46;;;;;;;3.83;3.50;;;;;;;17.26;47.35;98296.69;8378422;28;20229;-74
2023/05/09 00:48:51;;;;;;;3.90;3.70;;;;;;;17.39;46.99;98283.63;8380756;28;20228;-72
2023/05/09 00:52:54;;;;;;;4.63;4.23;;;;;;;17.14;47.77;98287.06;8384672;28;20229;-74
2023/05/09 00:56:56;;;;;;;4.97;4.20;;;;;;;17.12;47.93;98270.63;8384559;28;20535;-71
2023/05/09 01:01:02;;;;;;;4.63;4.30;;;;;;;16.94;47.29;98208.06;8383790;28;20232;-71
2023/05/09 01:05:05;;;;;;;4.80;4.30;;;;;;;17.18;48.12;98268.41;8384187;28;20240;-71
2023/05/09 01:09:21;;;;;;;4.43;4.17;;;;;;;17.23;47.27;98257.66;8384134;28;20224;-71
2023/05/09 01:13:27;;;;;;;5.27;4.80;;;;;;;17.02;48.41;98267.78;8391925;28;20224;-71
2023/05/09 01:17:37;;;;;;;4.40;4.00;;;;;;;17.48;47.25;98263.84;8383816;28;20228;-71
2023/05/09 01:21:44;;;;;;;4.60;4.20;;;;;;;17.17;47.48;98263.28;8383764;28;20255;-71
2023/05/09 01:25:56;;;;;;;6.77;4.13;;;;;;;17.22;47.47;98258.59;8383589;28;20238;-71
2023/05/09 01:30:01;;;;;;;4.97;4.57;;;;;;;16.83;48.68;98255.06;8383338;28;20527;-72
2023/05/09 01:34:06;;;;;;;4.53;4.23;;;;;;;16.59;49.42;98250.44;8382981;28;20365;-71
2023/05/09 01:38:11;;;;;;;4.90;4.50;;;;;;;16.87;48.35;98250.44;8383443;28;20253;-72
2023/05/09 01:42:15;;;;;;;4.87;4.47;;;;;;;16.40;49.40;98242.94;8382446;28;20238;-72
2023/05/09 01:46:20;;;;;;;4.33;4.03;;;;;;;16.54;49.15;98236.81;8382419;28;20219;-72
2023/05/09 01:50:23;;;;;;;5.43;4.60;;;;;;;16.70;48.86;98235.84;8382751;28;20231;-72
2023/05/09 01:54:26;;;;;;;4.40;4.07;;;;;;;16.73;48.62;98241.69;8382270;28;20226;-72
2023/05/09 01:58:30;;;;;;;5.00;4.40;;;;;;;16.57;49.53;98236.63;8382452;28;20465;-72
2023/05/09 02:02:34;;;;;;;4.83;4.43;;;;;;;16.96;47.97;98236.75;8381867;28;20236;-72
2023/05/09 02:06:37;;;;;;;5.90;4.30;;;;;;;17.06;47.76;98229.13;8382007;28;20423;-72
2023/05/09 02:10:42;;;;;;;4.77;4.37;;;;;;;16.56;48.04;98187.03;8381847;28;20233;-72
2023/05/09 02:14:45;;;;;;;5.30;4.30;;;;;;;17.05;47.94;98240.56;8381802;28;20400;-72
2023/05/09 02:18:49;;;;;;;5.80;4.83;;;;;;;17.22;47.40;98244.66;8381450;28;20227;-71
2023/05/09 02:22:52;;;;;;;6.60;4.87;;;;;;;17.01;47.76;98247.75;8381492;28;20227;-72
2023/05/09 02:26:55;;;;;;;4.60;4.30;;;;;;;17.07;47.69;98244.72;8381371;28;20233;-72
2023/05/09 02:31:00;;;;;;;7.27;4.97;;;;;;;17.12;47.54;98231.38;8381258;28;20229;-72
2023/05/09 02:35:05;;;;;;;5.17;4.67;;;;;;;16.81;48.31;98241.19;8380869;28;20241;-71
2023/05/09 02:39:08;;;;;;;5.30;4.73;;;;;;;16.65;48.31;98243.13;8380975;28;20548;-72
2023/05/09 02:43:11;;;;;;;5.73;4.93;;;;;;;16.60;49.08;98235.56;8380715;28;20553;-72
2023/05/09 02:47:14;;;;;;;5.87;4.70;;;;;;;16.38;49.29;98238.75;8380656;28;20240;-72
2023/05/09 02:51:18;;;;;;;5.30;4.80;;;;;;;16.36;49.31;98231.00;8380559;28;20543;-72
2023/05/09 02:55:20;;;;;;;5.27;4.87;;;;;;;16.22;49.37;98242.34;8380082;28;20235;-72
2023/05/09 02:59:23;;;;;;;5.87;5.23;;;;;;;16.28;48.99;98230.66;8380565;28;20240;-72
2023/05/09 03:03:26;;;;;;;5.97;5.47;;;;;;;16.19;49.20;98237.28;8380136;28;20249;-72
2023/05/09 03:07:30;;;;;;;5.50;5.00;;;;;;;16.60;48.69;98228.59;8380328;28;20529;-72
2023/05/09 03:11:35;;;;;;;5.97;5.47;;;;;;;16.59;48.75;98228.69;8379724;28;20240;-72
2023/05/09 03:15:38;;;;;;;5.93;5.33;;;;;;;16.77;48.30;98224.88;8380027;28;20237;-72
2023/05/09 03:19:40;;;;;;;5.97;5.50;;;;;;;16.53;48.72;98216.00;8380145;28;20231;-72
2023/05/09 03:23:48;;;;;;;6.37;5.37;;;;;;;16.80;48.10;98223.81;8379986;28;20501;-72
2023/05/09 03:27:50;;;;;;;5.60;5.20;;;;;;;16.81;48.17;98221.13;8379782;28;20238;-72
2023/05/09 03:31:53;;;;;;;6.20;5.60;;;;;;;16.71;48.39;98219.19;8379845;28;20513;-72
2023/05/09 03:35:56;;;;;;;6.33;5.77;;;;;;;16.50;48.90;98201.34;8379636;28;20414;-72
2023/05/09 03:40:00;;;;;;;6.70;6.10;;;;;;;16.58;49.12;98208.69;8379166;28;20555;-73
2023/05/09 03:44:03;;;;;;;6.47;5.93;;;;;;;16.61;48.87;98211.94;8379394;28;20272;-72
2023/05/09 03:48:08;;;;;;;6.57;6.00;;;;;;;16.73;48.97;98215.53;8379295;28;20233;-72
2023/05/09 03:52:13;;;;;;;6.40;5.90;;;;;;;16.63;49.20;98214.47;8379344;28;20295;-72
2023/05/09 03:56:17;;;;;;;7.03;6.40;;;;;;;16.45;49.65;98224.34;8379290;28;20439;-72
2023/05/09 04:00:21;;;;;;;7.10;6.50;;;;;;;16.51;49.27;98220.50;8378840;28;20573;-72
2023/05/09 04:04:23;;;;;;;7.07;6.43;;;;;;;16.72;48.76;98215.66;8379049;28;20237;-72
2023/05/09 04:08:27;;;;;;;7.43;6.70;;;;;;;16.20;49.17;98151.91;8379033;28;20232;-72
2023/05/09 04:12:31;;;;;;;7.00;6.37;;;;;;;16.77;48.86;98224.88;8378615;28;20233;-71
2023/05/09 04:16:33;;;;;;;7.30;6.60;;;;;;;16.64;49.07;98225.75;8377918;28;20450;-71
2023/05/09 04:20:36;;;;;;;7.67;6.60;;;;;;;16.19;49.94;98202.50;8377974;28;20265;-72
2023/05/09 04:24:39;;;;;;;7.53;6.83;;;;;;;16.11;50.62;98221.25;8381576;28;20520;-72
2023/05/09 04:28:43;;;;;;;7.70;6.97;;;;;;;16.07;50.43;98183.22;8384243;28;20236;-72
2023/05/09 04:32:47;;;;;;;6.37;5.87;;;;;;;16.55;49.45;98212.34;8384031;28;20232;-72
2023/05/09 04:36:51;;;;;;;7.83;7.13;;;;;;;16.57;49.03;98193.97;8383952;28;20224;-72
2023/05/09 04:40:54;;;;;;;8.10;7.00;;;;;;;16.28;50.25;98220.19;8383447;28;20250;-73
2023/05/09 04:44:58;;;;;;;7.47;6.57;;;;;;;16.65;49.63;98222.22;8383916;28;20228;-73
2023/05/09 04:49:00;;;;;;;8.00;7.30;;;;;;;15.98;51.03;98218.56;8383417;28;20225;-72
2023/05/09 04:53:04;;;;;;;7.27;6.67;;;;;;;16.78;49.15;98225.72;8383586;28;20227;-72
2023/05/09 04:57:07;;;;;;;7.30;6.77;;;;;;;16.67;49.07;98220.34;8383506;28;20245;-72
2023/05/09 05:01:21;;;;;;;7.47;6.87;;;;;;;16.63;49.33;98219.69;8416439;28;20252;-74
2023/05/09 05:05:25;;;;;;;9.13;8.23;;;;;;;16.78;48.79;98200.38;8416390;28;20524;-73
2023/05/09 05:09:28;;;;;;;7.30;6.70;;;;;;;16.77;49.67;98216.19;8416078;28;20232;-73
2023/05/09 05:13:31;;;;;;;7.33;6.57;;;;;;;16.88;49.38;98215.50;8416269;28;20548;-73
2023/05/09 05:17:35;;;;;;;7.03;6.53;;;;;;;16.79;49.21;98215.16;8416080;28;20234;-73
2023/05/09 05:21:38;;;;;;;7.80;6.93;;;;;;;16.60;49.28;98215.53;8414319;28;20239;-73
2023/05/09 05:25:41;;;;;;;8.00;7.20;;;;;;;16.45;50.09;98213.91;8415559;28;20409;-73
2023/05/09 05:29:44;;;;;;;8.80;7.90;;;;;;;16.21;50.28;98190.16;8415596;28;20378;-73
2023/05/09 05:33:48;;;;;;;9.00;8.10;;;;;;;16.51;49.89;98208.28;8414685;28;20216;-71
2023/05/09 05:37:51;;;;;;;7.43;6.80;;;;;;;16.50;49.83;98195.28;8414933;28;20225;-73
2023/05/09 05:41:54;;;;;;;7.47;6.80;;;;;;;16.42;50.24;98188.78;8415016;28;20256;-72
2023/05/09 05:45:57;;;;;;;8.23;7.43;;;;;;;16.16;50.17;98207.91;8414533;28;20222;-72
2023/05/09 05:50:02;;;;;;;8.93;7.50;;;;;;;16.65;49.50;98204.75;8396964;28;20233;-72
2023/05/09 05:54:05;;;;;;;8.17;7.37;;;;;;;16.27;50.04;98181.94;8414504;28;20224;-73
2023/05/09 05:58:10;;;;;;;7.80;7.00;;;;;;;16.40;49.92;98192.44;8414433;28;20232;-72
2023/05/09 06:02:13;;;;;;;8.63;7.73;;;;;;;16.61;49.02;98192.81;8414274;28;20230;-71
2023/05/09 06:06:18;;;;;;;8.20;7.50;;;;;;;16.60;48.96;98189.38;8413946;28;20233;-72
2023/05/09 06:10:21;;;;;;;8.00;7.30;;;;;;;16.71;48.26;98190.44;8380379;28;20223;-72
2023/05/09 06:14:24;;;;;;;7.40;6.70;;;;;;;16.73;47.06;98184.16;8380567;28;20523;-72
2023/05/09 06:18:29;;;;;;;8.03;6.87;;;;;;;16.98;46.24;98178.19;8380571;28;20238;-72
2023/05/09 06:22:38;;;;;;;5.97;5.43;;;;;;;16.86;44.58;98163.28;8380620;28;20441;-72
2023/05/09 06:26:41;;;;;;;8.67;5.47;;;;;;;17.29;42.45;98175.28;8380098;28;20332;-73
2023/05/09 06:30:44;;;;;;;7.23;5.43;;;;;;;17.16;43.00;98177.88;8380141;28;20227;-73
2023/05/09 06:34:47;;;;;;;5.63;5.13;;;;;;;16.20;43.24;98115.31;8379800;28;20242;-72
2023/05/09 06:38:52;;;;;;;5.53;5.07;;;;;;;17.14;42.61;98164.06;8379951;28;20484;-72
2023/05/09 06:42:54;;;;;;;7.17;4.80;;;;;;;17.55;41.91;98161.22;8379325;28;20539;-72
2023/05/09 06:46:57;;;;;;;7.50;4.93;;;;;;;17.06;41.90;98155.88;8378547;28;20505;-72
2023/05/09 06:51:00;;;;;;;7.70;5.10;;;;;;;16.63;42.27;98044.53;8379359;28;20298;-72
2023/05/09 06:55:05;;;;;;;5.63;4.87;;;;;;;17.36;41.71;98152.94;8379425;28;20333;-72
2023/05/09 06:59:12;;;;;;;6.73;4.57;;;;;;;17.20;41.20;98138.28;8379543;28;20227;-73
2023/05/09 07:03:15;;;;;;;5.83;4.37;;;;;;;17.63;41.66;98136.25;8379436;28;20232;-72
2023/05/09 07:07:18;;;;;;;5.07;4.60;;;;;;;18.00;40.76;98123.19;8378827;28;20293;-72
2023/05/09 07:11:22;;;;;;;5.30;4.60;;;;;;;18.28;40.00;98125.47;8378520;28;20217;-73
2023/05/09 07:15:25;;;;;;;5.83;4.40;;;;;;;18.48;39.74;98105.63;8379085;28;20511;-73
2023/05/09 07:19:43;;;;;;;5.43;4.93;;;;;;;18.40;39.68;98108.00;8378863;28;20543;-74
2023/05/09 07:23:46;;;;;;;6.17;4.50;;;;;;;18.88;39.30;98105.28;8378824;28;20235;-73
2023/05/09 07:27:50;;;;;;;5.10;4.67;;;;;;;18.11;40.95;98110.16;8378931;28;20416;-73
2023/05/09 07:31:53;;;;;;;6.37;4.17;;;;;;;18.75;38.95;98121.13;8378740;28;20233;-73
2023/05/09 07:35:58;;;;;;;4.60;4.20;;;;;;;17.79;38.50;98108.88;8378714;28;20248;-74
2023/05/09 07:40:02;;;;;;;4.80;4.40;;;;;;;18.69;36.84;98107.59;8378434;28;20231;-74
2023/05/09 07:44:08;;;;;;;4.47;4.17;;;;;;;18.96;36.69;98099.44;8378665;28;20294;-73
2023/05/09 07:48:11;;;;;;;5.63;3.97;;;;;;;19.33;35.15;98097.44;8378053;28;20251;-73
2023/05/09 07:52:16;;;;;;;4.27;3.80;;;;;;;18.77;36.47;98063.25;8377976;28;20236;-73
2023/05/09 07:56:18;;;;;;;4.40;3.80;;;;;;;19.55;35.97;98085.25;8410991;28;20231;-73
2023/05/09 08:00:24;;;;;;;4.37;3.97;;;;;;;19.36;35.13;98083.25;8417089;28;20434;-73
2023/05/09 08:04:27;;;;;;;4.43;4.00;;;;;;;19.51;34.64;98079.44;8417966;28;20358;-72
2023/05/09 08:08:30;;;;;;;5.47;3.83;;;;;;;19.53;34.95;98072.25;8417119;28;20224;-72
2023/05/09 08:12:35;;;;;;;5.90;4.27;;;;;;;19.88;34.98;98060.75;8417599;28;20516;-72
2023/05/09 08:16:39;;;;;;;4.37;4.03;;;;;;;20.28;34.28;98060.09;8417511;28;20242;-72
2023/05/09 08:20:42;;;;;;;4.80;4.17;;;;;;;19.85;34.63;98060.97;8417485;28;20232;-72
2023/05/09 08:24:45;;;;;;;5.50;4.20;;;;;;;20.74;33.88;98047.56;8417320;28;20223;-72
2023/05/09 08:28:50;;;;;;;4.20;3.80;;;;;;;21.02;33.21;98050.47;8416919;28;20315;-72
2023/05/09 08:32:54;;;;;;;3.50;3.30;;;;;;;20.31;33.66;98043.22;8416796;28;20238;-72
2023/05/09 08:36:57;;;;;;;5.70;3.83;;;;;;;21.05;32.97;98032.59;8416652;28;20266;-72
2023/05/09 08:41:00;;;;;;;4.60;3.37;;;;;;;20.70;32.69;98017.22;8416674;28;20229;-71
2023/05/09 08:45:07;;;;;;;4.17;3.87;;;;;;;21.05;32.07;98019.44;8416350;28;20231;-72
2023/05/09 08:49:12;;;;;;;4.27;3.97;;;;;;;21.25;32.92;98009.81;8416592;28;20245;-69
2023/05/09 08:53:15;;;;;;;4.07;3.77;;;;;;;20.98;32.00;97992.00;8416551;28;20232;-70
2023/05/09 08:57:18;;;;;;;4.37;4.03;;;;;;;20.92;32.47;97976.69;8416568;28;20224;-70
2023/05/09 09:01:21;;;;;;;4.60;4.20;;;;;;;20.88;31.44;97989.28;8383185;28;20283;-71
2023/05/09 09:05:25;;;;;;;4.10;3.80;;;;;;;21.27;31.25;97989.44;8382598;28;20236;-70
2023/05/09 09:09:47;;;;;;;3.63;3.30;;;;;;;22.06;29.78;97993.00;8382136;28;20422;-72
2023/05/09 09:13:52;;;;;;;4.47;4.07;;;;;;;21.27;30.17;97994.69;8383031;28;20240;-71
2023/05/09 09:17:56;;;;;;;4.20;3.90;;;;;;;22.01;30.45;97987.34;8382267;28;20558;-72
2023/05/09 09:22:05;;;;;;;4.03;3.67;;;;;;;22.02;30.42;97981.91;8382458;28;20232;-72
2023/05/09 09:26:08;;;;;;;4.67;4.10;;;;;;;22.35;29.98;97969.25;8382409;28;20293;-70
2023/05/09 09:30:12;;;;;;;7.07;3.90;;;;;;;22.98;29.54;97955.41;8382181;28;20225;-71
2023/05/09 09:34:21;;;;;;;4.00;3.53;;;;;;;22.19;29.69;97947.88;8382029;28;20247;-70
2023/05/09 09:38:26;;;;;;;3.40;3.00;;;;;;;22.99;28.46;97949.16;8381939;28;20220;-70
2023/05/09 09:42:40;;;;;;;3.93;3.63;;;;;;;22.35;29.11;97942.03;8381613;28;20236;-70
2023/05/09 09:46:45;;;;;;;3.47;3.10;;;;;;;21.78;27.25;97941.94;8379587;28;20327;-70
2023/05/09 09:50:50;;;;;;;3.70;3.40;;;;;;;23.08;27.02;97933.44;8380960;28;20578;-71
2023/05/09 09:54:56;;;;;;;3.83;2.80;;;;;;;23.36;25.22;97929.78;8381046;28;20558;-70
2023/05/09 09:59:09;;;;;;;3.47;3.10;;;;;;;23.58;26.20;97917.09;8381321;28;20236;-70
2023/05/09 10:03:14;;;;;;;3.50;3.20;;;;;;;22.73;26.26;97922.63;8380905;28;20248;-71
2023/05/09 10:07:19;;;;;;;3.07;2.80;;;;;;;23.04;25.30;97895.94;8380861;28;20292;-72
2023/05/09 10:11:23;;;;;;;3.53;2.57;;;;;;;23.98;24.30;97895.47;8380339;28;20228;-72
2023/05/09 10:15:28;;;;;;;4.93;2.60;;;;;;;23.43;24.20;97891.19;8380622;28;20220;-71
2023/05/09 10:19:46;;;;;;;4.33;2.77;;;;;;;24.06;24.71;97884.09;8380367;28;20229;-71
2023/05/09 10:23:51;;;;;;;5.00;2.73;;;;;;;23.87;24.56;97882.50;8380545;28;20239;-71
2023/05/09 10:27:57;;;;;;;3.03;2.80;;;;;;;24.24;23.29;97867.34;8380517;28;20236;-72
2023/05/09 10:32:01;;;;;;;2.80;2.60;;;;;;;24.36;24.19;97872.22;8380059;28;20232;-71
2023/05/09 10:36:05;;;;;;;5.37;2.90;;;;;;;24.88;23.66;97868.63;8380569;28;20236;-72
2023/05/09 10:40:12;;;;;;;3.77;2.70;;;;;;;23.79;23.21;97840.97;8379720;28;20556;-72
2023/05/09 10:44:17;;;;;;;2.90;2.70;;;;;;;23.75;23.20;97844.88;8379942;28;20291;-71
2023/05/09 10:48:21;;;;;;;3.33;3.00;;;;;;;24.10;23.08;97835.19;8379678;28;20248;-72
2023/05/09 10:52:24;;;;;;;3.90;2.80;;;;;;;23.51;23.37;97832.28;8380214;28;20225;-72
2023/05/09 10:56:30;;;;;;;2.87;2.57;;;;;;;24.72;22.39;97818.31;8379841;28;20229;-72
2023/05/09 11:00:41;;;;;;;2.80;2.60;;;;;;;23.98;21.69;97805.53;8379451;28;20240;-73
2023/05/09 11:04:44;;;;;;;2.63;2.40;;;;;;;24.30;20.60;97798.75;8379328;28;20232;-72
2023/05/09 11:08:48;;;;;;;2.40;2.20;;;;;;;25.28;20.19;97792.91;8379280;28;20491;-71
2023/05/09 11:12:55;;;;;;;3.87;2.73;;;;;;;24.43;21.72;97790.38;8378858;28;20221;-72
2023/05/09 11:17:04;;;;;;;3.10;2.80;;;;;;;24.82;21.46;97773.97;8379015;28;20291;-72
2023/05/09 11:21:10;;;;;;;4.43;3.00;;;;;;;24.47;22.91;97778.47;8378798;28;20220;-72
2023/05/09 11:25:15;;;;;;;4.53;2.90;;;;;;;24.32;22.08;97769.50;8378575;28;20239;-72
2023/05/09 11:29:19;;;;;;;5.80;2.97;;;;;;;25.47;21.62;97765.22;8411324;28;20228;-71
2023/05/09 11:33:24;;;;;;;2.70;2.50;;;;;;;23.98;22.49;97754.47;8410862;28;20228;-70
2023/05/09 11:37:31;;;;;;;3.80;2.80;;;;;;;24.84;21.36;97739.38;8411100;28;20491;-70
2023/05/09 11:41:41;;;;;;;3.50;2.80;;;;;;;25.08;21.79;97734.09;8411006;28;20229;-70
2023/05/09 11:45:46;;;;;;;2.70;2.50;;;;;;;24.51;20.52;97723.41;8411455;28;20508;-70
2023/05/09 11:49:51;;;;;;;3.00;2.50;;;;;;;24.92;20.99;97736.72;8411284;28;20228;-70
2023/05/09 11:53:57;;;;;;;3.60;3.07;;;;;;;25.20;21.00;97721.34;8411689;28;20467;-70
2023/05/09 11:58:00;;;;;;;3.40;2.50;;;;;;;25.33;21.42;97710.25;8410874;28;20228;-69
2023/05/09 12:02:04;;;;;;;3.50;2.53;;;;;;;25.35;21.38;97705.63;8411130;28;20235;-69
2023/05/09 12:06:08;;;;;;;4.37;2.90;;;;;;;25.46;21.69;97692.00;8411253;28;20231;-69
2023/05/09 12:10:14;;;;;;;2.70;2.50;;;;;;;26.10;21.50;97692.00;8411120;28;20567;-70
2023/05/09 12:14:29;;;;;;;3.33;2.70;;;;;;;25.77;21.28;97685.97;8411098;28;20244;-70
2023/05/09 12:18:32;;;;;;;2.60;2.40;;;;;;;25.61;20.82;97681.53;8377067;28;20229;-70
2023/05/09 12:22:37;;;;;;;4.40;2.57;;;;;;;24.85;20.91;97670.38;8377595;28;20232;-70
2023/05/09 12:26:40;;;;;;;2.40;2.20;;;;;;;25.24;20.42;97666.22;8377749;28;20221;-72
2023/05/09 12:30:43;;;;;;;2.27;2.07;;;;;;;25.50;18.81;97658.03;8377089;28;20232;-70
2023/05/09 12:34:47;;;;;;;2.20;2.00;;;;;;;25.27;18.00;97650.81;8377632;28;20229;-71
2023/05/09 12:38:55;;;;;;;2.40;1.87;;;;;;;25.35;17.91;97644.66;8377783;28;20229;-70
2023/05/09 12:42:59;;;;;;;1.70;1.60;;;;;;;25.34;17.96;97646.50;8377381;28;20500;-70
2023/05/09 12:47:03;;;;;;;4.27;2.20;;;;;;;24.75;18.33;97640.56;8383377;28;20296;-70
2023/05/09 12:51:07;;;;;;;4.33;1.93;;;;;;;25.31;18.84;97632.75;8383350;28;20225;-71
2023/05/09 12:55:13;;;;;;;2.13;1.80;;;;;;;24.62;18.75;97632.28;8383911;28;20221;-72
2023/05/09 12:59:20;;;;;;;3.80;1.90;;;;;;;25.20;17.20;97622.47;8372235;28;20529;-72
2023/05/09 13:03:23;;;;;;;2.30;2.00;;;;;;;25.12;17.07;97618.03;8416247;28;20601;-72
2023/05/09 13:07:27;;;;;;;3.20;1.70;;;;;;;25.66;16.96;97589.03;8416580;28;20242;-72
2023/05/09 13:11:31;;;;;;;3.03;1.93;;;;;;;25.44;16.34;97603.88;8415698;28;20239;-72
2023/05/09 13:15:35;;;;;;;1.57;1.47;;;;;;;25.87;16.69;97585.78;8416077;28;20232;-72
2023/05/09 13:19:38;;;;;;;1.83;1.50;;;;;;;25.26;17.14;97582.06;8415709;28;20240;-72
2023/05/09 13:23:44;;;;;;;2.83;1.97;;;;;;;25.05;16.84;97572.81;8415448;28;20240;-72
2023/05/09 13:27:48;;;;;;;2.87;1.60;;;;;;;24.87;17.22;97567.75;8415574;28;20602;-72
2023/05/09 13:31:53;;;;;;;3.57;1.90;;;;;;;25.00;17.38;97566.38;8415076;28;20235;-72
2023/05/09 13:35:56;;;;;;;2.10;1.80;;;;;;;24.85;17.15;97556.50;8415229;28;20228;-72
2023/05/09 13:39:59;;;;;;;1.63;1.53;;;;;;;25.26;17.24;97555.59;8414815;28;20225;-72
2023/05/09 13:44:05;;;;;;;2.53;1.67;;;;;;;24.88;18.18;97539.44;8414880;28;20231;-72
2023/05/09 13:48:08;;;;;;;2.90;1.90;;;;;;;24.84;17.93;97543.41;8414664;28;20228;-72
2023/05/09 13:52:11;;;;;;;3.07;1.67;;;;;;;24.57;18.43;97540.97;8414661;28;20541;-72
2023/05/09 13:56:14;;;;;;;2.33;1.40;;;;;;;25.12;17.95;97546.50;8414568;28;20225;-73
2023/05/09 14:00:20;;;;;;;1.97;1.87;;;;;;;25.30;18.27;97533.03;8414348;28;20229;-72
2023/05/09 14:04:23;;;;;;;6.27;1.90;;;;;;;24.81;18.62;97527.84;8380744;28;20416;-73
2023/05/09 14:08:26;;;;;;;1.97;1.73;;;;;;;24.69;18.49;97517.63;8381460;28;20243;-72
2023/05/09 14:12:28;;;;;;;5.23;2.07;;;;;;;24.36;19.71;97495.63;8381067;28;20230;-73
2023/05/09 14:16:35;;;;;;;5.77;1.80;;;;;;;24.49;19.28;97426.31;8381287;28;20225;-72
2023/05/09 14:20:39;;;;;;;1.70;1.60;;;;;;;24.87;19.73;97503.38;8380817;28;20259;-72
2023/05/09 14:24:42;;;;;;;2.03;1.70;;;;;;;24.78;20.11;97492.78;8380759;28;20405;-73
2023/05/09 14:28:45;;;;;;;2.97;1.60;;;;;;;24.47;19.70;97489.19;8380543;28;20532;-72
2023/05/09 14:32:50;;;;;;;1.93;1.80;;;;;;;24.39;18.99;97487.38;8380147;28;20224;-72
2023/05/09 14:36:52;;;;;;;3.00;1.70;;;;;;;24.17;19.44;97471.16;8380201;28;20224;-73
2023/05/09 14:40:56;;;;;;;1.60;1.37;;;;;;;24.32;19.53;97466.03;8379842;28;20240;-73
2023/05/09 14:44:59;;;;;;;2.10;1.93;;;;;;;23.94;20.50;97457.78;8379749;28;20283;-72
2023/05/09 14:49:03;;;;;;;5.93;1.77;;;;;;;24.02;20.71;97453.50;8379545;28;20233;-74
2023/05/09 14:53:06;;;;;;;3.27;1.70;;;;;;;24.08;20.43;97439.59;8379743;28;20236;-72
2023/05/09 14:57:09;;;;;;;1.70;1.60;;;;;;;24.11;20.78;97436.63;8379265;28;20244;-71
2023/05/09 15:01:12;;;;;;;1.90;1.80;;;;;;;24.24;21.45;97429.03;8379306;28;20228;-72
2023/05/09 15:05:18;;;;;;;5.33;2.10;;;;;;;23.73;20.40;97397.44;8379196;28;20423;-71
2023/05/09 15:09:21;;;;;;;2.30;1.70;;;;;;;24.20;21.04;97404.72;8411056;28;20398;-72
2023/05/09 15:13:25;;;;;;;2.00;1.80;;;;;;;24.27;21.58;97407.50;8411700;28;20414;-71
2023/05/09 15:17:28;;;;;;;1.80;1.70;;;;;;;24.28;21.39;97414.47;8411804;28;20220;-71
2023/05/09 15:21:33;;;;;;;2.80;1.90;;;;;;;24.23;19.94;97408.84;8411228;28;20235;-71
2023/05/09 15:25:36;;;;;;;1.80;1.70;;;;;;;24.18;18.96;97401.41;8411695;28;20228;-71
2023/05/09 15:29:40;;;;;;;1.80;1.70;;;;;;;23.92;19.44;97403.44;8393931;28;20638;-71
2023/05/09 15:33:46;;;;;;;2.20;1.70;;;;;;;23.88;20.41;97397.63;8411781;28;20227;-71
2023/05/09 15:37:51;;;;;;;2.47;1.80;;;;;;;23.80;20.41;97395.00;8411437;28;20231;-71
2023/05/09 15:41:54;;;;;;;1.60;1.50;;;;;;;24.27;19.82;97388.16;8411517;28;20235;-71
2023/05/09 15:45:57;;;;;;;2.27;1.70;;;;;;;23.78;19.79;97391.69;8411555;28;20225;-72
2023/05/09 15:50:00;;;;;;;1.80;1.70;;;;;;;23.40;19.58;97380.75;8411451;28;20275;-71
2023/05/09 15:54:05;;;;;;;1.77;1.67;;;;;;;23.97;20.04;97377.28;8411670;28;20228;-71
2023/05/09 15:58:09;;;;;;;1.70;1.60;;;;;;;23.59;20.36;97377.78;8411738;28;20228;-71
2023/05/09 16:02:12;;;;;;;1.97;1.87;;;;;;;23.42;20.64;97374.31;8411687;28;20515;-71
2023/05/09 16:06:15;;;;;;;2.63;1.73;;;;;;;23.80;21.63;97372.03;8411438;28;20409;-71
2023/05/09 16:10:19;;;;;;;2.07;1.93;;;;;;;23.67;21.41;97352.34;8410758;28;20233;-73
2023/05/09 16:14:22;;;;;;;2.13;1.87;;;;;;;23.40;22.30;97362.25;8411383;28;20238;-71
2023/05/09 16:18:27;;;;;;;2.10;1.93;;;;;;;23.40;22.68;97357.78;8412684;28;20243;-71
2023/05/09 16:22:30;;;;;;;1.87;1.77;;;;;;;23.25;22.73;97361.22;8417828;28;20531;-71
2023/05/09 16:26:35;;;;;;;3.90;2.30;;;;;;;22.93;23.72;97344.31;8417187;28;20236;-71
2023/05/09 16:30:38;;;;;;;2.83;2.50;;;;;;;22.74;23.55;97327.75;8417342;28;20566;-71
2023/05/09 16:34:41;;;;;;;2.90;2.70;;;;;;;22.90;22.97;97332.22;8416901;28;20228;-71
2023/05/09 16:38:44;;;;;;;3.00;2.10;;;;;;;22.64;23.92;97327.06;8416956;28;20512;-70
2023/05/09 16:42:48;;;;;;;1.90;1.80;;;;;;;22.85;24.03;97326.63;8416605;28;20232;-69
2023/05/09 16:46:50;;;;;;;2.10;2.00;;;;;;;22.61;24.49;97308.91;8416619;28;20407;-71
2023/05/09 16:50:53;;;;;;;3.10;2.23;;;;;;;22.19;25.03;97309.69;8416373;28;20232;-69
2023/05/09 16:54:58;;;;;;;6.33;2.50;;;;;;;22.15;25.17;97300.44;8416679;28;20524;-70
2023/05/09 16:59:02;;;;;;;4.30;2.50;;;;;;;22.48;24.73;97293.50;8416670;28;20235;-70
2023/05/09 17:03:05;;;;;;;2.17;1.97;;;;;;;22.37;24.72;97291.16;8416282;28;20304;-68
2023/05/09 17:07:08;;;;;;;3.50;2.00;;;;;;;22.76;24.64;97283.53;8416208;28;20228;-69
2023/05/09 17:11:11;;;;;;;2.70;2.50;;;;;;;22.58;24.89;97290.75;8416138;28;20425;-69
2023/05/09 17:15:16;;;;;;;3.60;2.40;;;;;;;22.53;25.52;97277.22;8416131;28;20270;-67
2023/05/09 17:19:22;;;;;;;2.67;1.93;;;;;;;22.50;26.25;97266.97;8415225;28;20421;-68
2023/05/09 17:23:25;;;;;;;3.00;2.20;;;;;;;22.30;26.74;97261.97;8416019;28;20235;-68
2023/05/09 17:27:27;;;;;;;2.63;2.17;;;;;;;22.55;27.26;97257.59;8404532;28;20224;-68
2023/05/09 17:31:32;;;;;;;2.67;2.47;;;;;;;21.93;27.04;97176.09;8414461;28;20504;-68
2023/05/09 17:35:36;;;;;;;2.43;2.20;;;;;;;22.18;28.08;97261.41;8415364;28;20228;-68
2023/05/09 17:39:41;;;;;;;5.10;2.30;;;;;;;22.08;27.73;97244.88;8414751;28;20235;-68
2023/05/09 17:43:49;;;;;;;2.90;2.40;;;;;;;22.19;27.48;97256.94;8414875;28;20220;-69
2023/05/09 17:47:56;;;;;;;2.10;1.90;;;;;;;21.90;27.47;97249.41;8415569;28;20221;-69
2023/05/09 17:52:00;;;;;;;2.80;2.23;;;;;;;22.21;27.54;97247.88;8415023;28;20235;-69
2023/05/09 17:56:03;;;;;;;3.20;2.23;;;;;;;21.93;27.79;97249.91;8414568;28;20231;-67
2023/05/09 18:00:08;;;;;;;4.80;2.13;;;;;;;21.54;28.28;97241.63;8414955;28;20230;-67
2023/05/09 18:04:14;;;;;;;3.23;2.27;;;;;;;21.33;28.10;97241.94;8414050;28;20233;-68
2023/05/09 18:08:17;;;;;;;2.27;2.17;;;;;;;21.27;27.01;97240.75;8414369;28;20228;-69
2023/05/09 18:12:20;;;;;;;3.43;2.20;;;;;;;21.30;26.81;97229.88;8380728;28;20225;-69
2023/05/09 18:16:23;;;;;;;3.70;2.30;;;;;;;21.31;27.22;97231.53;8380844;28;20326;-68
2023/05/09 18:20:28;;;;;;;2.30;2.10;;;;;;;21.39;26.87;97233.41;8381182;28;20229;-67
2023/05/09 18:24:31;;;;;;;2.60;2.10;;;;;;;21.25;27.29;97222.44;8381247;28;20225;-67
2023/05/09 18:28:38;;;;;;;2.20;2.00;;;;;;;21.21;27.54;97221.13;8381003;28;20535;-67
2023/05/09 18:32:41;;;;;;;2.20;2.10;;;;;;;21.21;27.63;97225.53;8380818;28;20225;-67
2023/05/09 18:36:45;;;;;;;2.33;1.90;;;;;;;20.96;28.32;97216.63;8380601;28;20224;-67
2023/05/09 18:40:50;;;;;;;2.70;2.37;;;;;;;20.87;28.29;97211.28;8379316;28;20237;-67
2023/05/09 18:44:53;;;;;;;3.23;2.30;;;;;;;21.18;28.15;97228.47;8380297;28;20407;-67
2023/05/09 18:48:56;;;;;;;2.23;2.00;;;;;;;21.05;28.52;97228.88;8379829;28;20559;-66
2023/05/09 18:53:02;;;;;;;2.30;2.10;;;;;;;21.17;28.72;97222.41;8379925;28;20240;-67
2023/05/09 18:57:05;;;;;;;2.60;2.50;;;;;;;20.96;28.91;97216.63;8369928;28;20228;-66
2023/05/09 19:01:10;;;;;;;2.17;2.00;;;;;;;21.09;29.44;97219.69;8378933;28;20451;-66
2023/05/09 19:05:13;;;;;;;2.50;2.30;;;;;;;21.20;29.69;97210.72;8379398;28;20540;-67
2023/05/09 19:09:17;;;;;;;2.33;2.23;;;;;;;20.92;29.50;97221.34;8379755;28;20224;-67